sensor_id;sensor_type;location;lat;lon;timestamp;P1;durP1;ratioP1;P2;durP2;ratioP2
3817;SDS011;1924;48.078;11.516;2023-04-15T04:02:39;26.20;;;0.80;;
3817;SDS011;1924;48.078;11.516;2023-04-15T04:05:06;26.20;;;0.80;;
3817;SDS011;1924;48.078;11.516;2023-04-15T04:07:33;26.23;;;0.80;;
3817;SDS011;1924;48.078;11.516;2023-04-15T04:10:00;26.10;;;0.73;;
3817;SDS011;1924;48.078;11.516;2023-04-15T04:12:27;26.30;;;0.80;;
3817;SDS011;1924;48.078;11.516;2023-04-15T04:14:54;26.10;;;0.80;;
3817;SDS011;1924;48.078;11.516;2023-04-15T04:17:21;26.10;;;0.80;;
3817;SDS011;1924;48.078;11.516;2023-04-15T04:19:49;26.20;;;0.80;;
3817;SDS011;1924;48.078;11.516;2023-04-15T04:22:16;26.20;;;0.80;;
3817;SDS011;1924;48.078;11.516;2023-04-15T04:24:42;26.20;;;0.77;;
3817;SDS011;1924;48.078;11.516;2023-04-15T04:27:09;26.00;;;0.70;;
3817;SDS011;1924;48.078;11.516;2023-04-15T04:29:36;26.10;;;0.70;;
3817;SDS011;1924;48.078;11.516;2023-04-15T04:32:03;26.20;;;0.80;;
3817;SDS011;1924;48.078;11.516;2023-04-15T04:34:29;26.20;;;0.80;;
3817;SDS011;1924;48.078;11.516;2023-04-15T04:36:58;26.00;;;0.80;;
3817;SDS011;1924;48.078;11.516;2023-04-15T04:39:24;26.20;;;0.80;;
3817;SDS011;1924;48.078;11.516;2023-04-15T04:41:51;26.10;;;0.80;;
3817;SDS011;1924;48.078;11.516;2023-04-15T04:44:18;26.20;;;0.80;;
3817;SDS011;1924;48.078;11.516;2023-04-15T04:46:44;26.10;;;0.80;;
3817;SDS011;1924;48.078;11.516;2023-04-15T04:49:11;26.10;;;0.70;;
3817;SDS011;1924;48.078;11.516;2023-04-15T04:51:38;26.10;;;0.70;;
3817;SDS011;1924;48.078;11.516;2023-04-15T04:54:06;26.10;;;0.80;;
3817;SDS011;1924;48.078;11.516;2023-04-15T04:56:33;26.10;;;0.80;;
3817;SDS011;1924;48.078;11.516;2023-04-15T04:59:00;25.83;;;0.80;;
3817;SDS011;1924;48.078;11.516;2023-04-15T05:01:27;26.10;;;0.77;;
3817;SDS011;1924;48.078;11.516;2023-04-15T05:03:53;26.20;;;0.80;;
3817;SDS011;1924;48.078;11.516;2023-04-15T05:06:20;26.00;;;0.70;;
3817;SDS011;1924;48.078;11.516;2023-04-15T05:08:47;26.10;;;0.73;;
3817;SDS011;1924;48.078;11.516;2023-04-15T05:11:15;26.00;;;0.80;;
3817;SDS011;1924;48.078;11.516;2023-04-15T05:13:42;26.20;;;0.70;;
3817;SDS011;1924;48.078;11.516;2023-04-15T05:16:09;26.00;;;0.80;;
3817;SDS011;1924;48.078;11.516;2023-04-15T05:18:36;26.00;;;0.77;;
3817;SDS011;1924;48.078;11.516;2023-04-15T05:21:03;26.10;;;0.80;;
3817;SDS011;1924;48.078;11.516;2023-04-15T05:23:30;26.00;;;0.80;;
3817;SDS011;1924;48.078;11.516;2023-04-15T05:25:57;26.00;;;0.80;;
3817;SDS011;1924;48.078;11.516;2023-04-15T05:28:26;26.00;;;0.70;;
3817;SDS011;1924;48.078;11.516;2023-04-15T05:30:52;26.00;;;0.73;;
3817;SDS011;1924;48.078;11.516;2023-04-15T05:33:20;26.10;;;0.80;;
3817;SDS011;1924;48.078;11.516;2023-04-15T05:35:47;26.07;;;0.80;;
3817;SDS011;1924;48.078;11.516;2023-04-15T05:38:13;25.90;;;0.70;;
3817;SDS011;1924;48.078;11.516;2023-04-15T05:40:40;26.10;;;0.80;;
3817;SDS011;1924;48.078;11.516;2023-04-15T05:43:07;26.00;;;0.70;;
3817;SDS011;1924;48.078;11.516;2023-04-15T05:45:35;25.83;;;0.80;;
3817;SDS011;1924;48.078;11.516;2023-04-15T05:48:02;25.90;;;0.73;;
3817;SDS011;1924;48.078;11.516;2023-04-15T05:50:29;26.00;;;0.70;;
3817;SDS011;1924;48.078;11.516;2023-04-15T05:52:56;25.90;;;0.73;;
3817;SDS011;1924;48.078;11.516;2023-04-15T05:55:23;26.00;;;0.70;;
3817;SDS011;1924;48.078;11.516;2023-04-15T05:57:50;25.90;;;0.70;;
3817;SDS011;1924;48.078;11.516;2023-04-15T06:00:17;25.90;;;0.70;;
3817;SDS011;1924;48.078;11.516;2023-04-15T06:02:45;25.70;;;0.73;;
3817;SDS011;1924;48.078;11.516;2023-04-15T06:05:12;25.70;;;0.80;;
3817;SDS011;1924;48.078;11.516;2023-04-15T06:07:39;25.80;;;0.70;;
3817;SDS011;1924;48.078;11.516;2023-04-15T06:10:08;25.80;;;0.77;;
3817;SDS011;1924;48.078;11.516;2023-04-15T06:12:35;25.80;;;0.80;;
3817;SDS011;1924;48.078;11.516;2023-04-15T06:15:02;25.90;;;0.80;;
3817;SDS011;1924;48.078;11.516;2023-04-15T06:17:30;25.90;;;0.73;;
3817;SDS011;1924;48.078;11.516;2023-04-15T06:19:58;25.90;;;0.80;;
3817;SDS011;1924;48.078;11.516;2023-04-15T06:22:25;26.07;;;0.70;;
3817;SDS011;1924;48.078;11.516;2023-04-15T06:24:52;25.90;;;0.80;;
3817;SDS011;1924;48.078;11.516;2023-04-15T06:27:19;25.77;;;0.70;;
3817;SDS011;1924;48.078;11.516;2023-04-15T06:29:47;25.80;;;0.73;;
3817;SDS011;1924;48.078;11.516;2023-04-15T06:32:13;25.90;;;0.70;;
3817;SDS011;1924;48.078;11.516;2023-04-15T06:34:40;25.80;;;0.80;;
3817;SDS011;1924;48.078;11.516;2023-04-15T06:37:08;25.80;;;0.80;;
3817;SDS011;1924;48.078;11.516;2023-04-15T06:39:39;25.90;;;0.70;;
3817;SDS011;1924;48.078;11.516;2023-04-15T06:42:06;25.87;;;0.70;;
3817;SDS011;1924;48.078;11.516;2023-04-15T06:44:33;25.90;;;0.70;;
3817;SDS011;1924;48.078;11.516;2023-04-15T06:47:01;25.70;;;0.70;;
3817;SDS011;1924;48.078;11.516;2023-04-15T06:49:28;25.80;;;0.70;;
3817;SDS011;1924;48.078;11.516;2023-04-15T06:51:55;25.70;;;0.70;;
3817;SDS011;1924;48.078;11.516;2023-04-15T06:54:23;25.80;;;0.70;;
3817;SDS011;1924;48.078;11.516;2023-04-15T06:56:49;25.80;;;0.70;;
3817;SDS011;1924;48.078;11.516;2023-04-15T06:59:17;25.80;;;0.70;;
3817;SDS011;1924;48.078;11.516;2023-04-15T07:01:44;25.70;;;0.80;;
3817;SDS011;1924;48.078;11.516;2023-04-15T07:04:11;25.77;;;0.80;;
3817;SDS011;1924;48.078;11.516;2023-04-15T07:06:37;25.80;;;0.77;;
3817;SDS011;1924;48.078;11.516;2023-04-15T07:09:04;25.70;;;0.70;;
3817;SDS011;1924;48.078;11.516;2023-04-15T07:11:32;25.80;;;0.70;;
3817;SDS011;1924;48.078;11.516;2023-04-15T07:14:00;25.87;;;0.70;;
3817;SDS011;1924;48.078;11.516;2023-04-15T07:16:27;25.80;;;0.70;;
3817;SDS011;1924;48.078;11.516;2023-04-15T07:18:55;25.77;;;0.70;;
3817;SDS011;1924;48.078;11.516;2023-04-15T07:21:21;25.70;;;0.70;;
3817;SDS011;1924;48.078;11.516;2023-04-15T07:23:49;25.80;;;0.70;;
3817;SDS011;1924;48.078;11.516;2023-04-15T07:26:16;25.80;;;0.70;;
3817;SDS011;1924;48.078;11.516;2023-04-15T07:28:44;25.80;;;0.70;;
3817;SDS011;1924;48.078;11.516;2023-04-15T07:33:36;25.70;;;0.73;;
3817;SDS011;1924;48.078;11.516;2023-04-15T07:36:03;25.80;;;0.70;;
3817;SDS011;1924;48.078;11.516;2023-04-15T07:38:30;25.90;;;0.70;;
3817;SDS011;1924;48.078;11.516;2023-04-15T07:40:57;25.80;;;0.70;;
3817;SDS011;1924;48.078;11.516;2023-04-15T07:43:24;25.90;;;0.70;;
3817;SDS011;1924;48.078;11.516;2023-04-15T07:45:52;25.90;;;0.70;;
3817;SDS011;1924;48.078;11.516;2023-04-15T07:48:19;26.00;;;0.70;;
3817;SDS011;1924;48.078;11.516;2023-04-15T07:50:46;25.80;;;0.70;;
3817;SDS011;1924;48.078;11.516;2023-04-15T07:53:13;26.20;;;0.70;;
3817;SDS011;1924;48.078;11.516;2023-04-15T07:55:40;26.00;;;0.70;;
3817;SDS011;1924;48.078;11.516;2023-04-15T07:58:06;26.10;;;0.80;;
3817;SDS011;1924;48.078;11.516;2023-04-15T08:00:33;26.10;;;0.80;;
3817;SDS011;1924;48.078;11.516;2023-04-15T08:03:01;26.20;;;0.77;;
3817;SDS011;1924;48.078;11.516;2023-04-15T08:05:28;26.20;;;0.73;;
3817;SDS011;1924;48.078;11.516;2023-04-15T08:07:55;26.30;;;0.70;;
3817;SDS011;1924;48.078;11.516;2023-04-15T08:10:22;26.00;;;0.70;;
3817;SDS011;1924;48.078;11.516;2023-04-15T08:12:49;26.20;;;0.70;;
3817;SDS011;1924;48.078;11.516;2023-04-15T08:15:18;26.40;;;0.70;;
3817;SDS011;1924;48.078;11.516;2023-04-15T08:17:45;26.30;;;0.70;;
3817;SDS011;1924;48.078;11.516;2023-04-15T08:20:13;26.30;;;0.70;;
3817;SDS011;1924;48.078;11.516;2023-04-15T08:22:40;26.40;;;0.70;;
3817;SDS011;1924;48.078;11.516;2023-04-15T08:25:07;26.30;;;0.70;;
3817;SDS011;1924;48.078;11.516;2023-04-15T08:27:34;26.20;;;0.70;;
3817;SDS011;1924;48.078;11.516;2023-04-15T08:30:01;26.50;;;0.70;;
3817;SDS011;1924;48.078;11.516;2023-04-15T08:32:28;26.40;;;0.77;;
3817;SDS011;1924;48.078;11.516;2023-04-15T08:34:55;26.50;;;0.70;;
3817;SDS011;1924;48.078;11.516;2023-04-15T08:39:59;26.37;;;0.70;;
3817;SDS011;1924;48.078;11.516;2023-04-15T08:42:26;26.40;;;0.73;;
3817;SDS011;1924;48.078;11.516;2023-04-15T08:44:58;26.50;;;0.70;;
3817;SDS011;1924;48.078;11.516;2023-04-15T08:47:28;26.40;;;0.80;;
3817;SDS011;1924;48.078;11.516;2023-04-15T08:49:57;26.40;;;0.70;;
3817;SDS011;1924;48.078;11.516;2023-04-15T08:52:25;26.40;;;0.70;;
3817;SDS011;1924;48.078;11.516;2023-04-15T08:57:29;26.20;;;0.80;;
3817;SDS011;1924;48.078;11.516;2023-04-15T08:59:57;26.30;;;0.80;;
3817;SDS011;1924;48.078;11.516;2023-04-15T09:02:29;26.10;;;0.70;;
3817;SDS011;1924;48.078;11.516;2023-04-15T09:04:57;25.93;;;0.70;;
3817;SDS011;1924;48.078;11.516;2023-04-15T09:07:24;26.10;;;0.77;;
3817;SDS011;1924;48.078;11.516;2023-04-15T09:12:33;25.97;;;0.70;;
3817;SDS011;1924;48.078;11.516;2023-04-15T09:15:01;26.00;;;0.70;;
3817;SDS011;1924;48.078;11.516;2023-04-15T09:20:08;26.10;;;0.80;;
3817;SDS011;1924;48.078;11.516;2023-04-15T09:22:37;26.10;;;0.70;;
3817;SDS011;1924;48.078;11.516;2023-04-15T09:25:15;26.10;;;0.70;;
3817;SDS011;1924;48.078;11.516;2023-04-15T09:27:53;26.30;;;0.70;;
3817;SDS011;1924;48.078;11.516;2023-04-15T09:38:21;26.27;;;0.70;;
3817;SDS011;1924;48.078;11.516;2023-04-15T09:43:35;26.40;;;0.70;;
3817;SDS011;1924;48.078;11.516;2023-04-15T09:46:04;26.40;;;0.70;;
3817;SDS011;1924;48.078;11.516;2023-04-15T09:48:31;26.30;;;0.70;;
3817;SDS011;1924;48.078;11.516;2023-04-15T09:50:58;26.20;;;0.70;;
3817;SDS011;1924;48.078;11.516;2023-04-15T09:53:26;26.40;;;0.80;;
3817;SDS011;1924;48.078;11.516;2023-04-15T09:55:53;26.40;;;0.77;;
3817;SDS011;1924;48.078;11.516;2023-04-15T09:58:22;26.30;;;0.70;;
3817;SDS011;1924;48.078;11.516;2023-04-15T10:00:54;26.27;;;0.80;;
3817;SDS011;1924;48.078;11.516;2023-04-15T10:03:22;26.50;;;0.70;;
3817;SDS011;1924;48.078;11.516;2023-04-15T10:05:52;26.50;;;0.70;;
3817;SDS011;1924;48.078;11.516;2023-04-15T10:08:21;26.40;;;0.70;;
3817;SDS011;1924;48.078;11.516;2023-04-15T10:10:49;26.60;;;0.70;;
3817;SDS011;1924;48.078;11.516;2023-04-15T10:13:17;26.60;;;0.70;;
3817;SDS011;1924;48.078;11.516;2023-04-15T10:15:48;26.20;;;0.70;;
3817;SDS011;1924;48.078;11.516;2023-04-15T10:18:25;26.77;;;0.70;;
3817;SDS011;1924;48.078;11.516;2023-04-15T10:20:53;26.40;;;0.70;;
3817;SDS011;1924;48.078;11.516;2023-04-15T10:23:21;26.50;;;0.70;;
3817;SDS011;1924;48.078;11.516;2023-04-15T10:25:48;26.63;;;0.80;;
3817;SDS011;1924;48.078;11.516;2023-04-15T10:28:18;26.60;;;0.70;;
3817;SDS011;1924;48.078;11.516;2023-04-15T10:30:46;26.50;;;0.70;;
3817;SDS011;1924;48.078;11.516;2023-04-15T10:35:43;26.40;;;0.70;;
3817;SDS011;1924;48.078;11.516;2023-04-15T10:41:13;26.27;;;0.70;;
3817;SDS011;1924;48.078;11.516;2023-04-15T10:46:17;26.60;;;0.70;;
3817;SDS011;1924;48.078;11.516;2023-04-15T10:48:46;26.50;;;0.80;;
3817;SDS011;1924;48.078;11.516;2023-04-15T10:51:15;26.50;;;0.73;;
3817;SDS011;1924;48.078;11.516;2023-04-15T10:53:55;26.50;;;0.70;;
3817;SDS011;1924;48.078;11.516;2023-04-15T10:56:22;26.40;;;0.70;;
3817;SDS011;1924;48.078;11.516;2023-04-15T10:58:49;26.60;;;0.70;;
3817;SDS011;1924;48.078;11.516;2023-04-15T11:01:18;26.40;;;0.70;;
3817;SDS011;1924;48.078;11.516;2023-04-15T11:03:45;26.70;;;0.70;;
3817;SDS011;1924;48.078;11.516;2023-04-15T11:06:13;26.60;;;0.70;;
3817;SDS011;1924;48.078;11.516;2023-04-15T11:08:58;26.57;;;0.80;;
3817;SDS011;1924;48.078;11.516;2023-04-15T11:14:33;26.70;;;0.70;;
3817;SDS011;1924;48.078;11.516;2023-04-15T11:17:04;26.70;;;0.70;;
3817;SDS011;1924;48.078;11.516;2023-04-15T11:19:34;26.50;;;0.70;;
3817;SDS011;1924;48.078;11.516;2023-04-15T11:22:08;26.50;;;0.70;;
3817;SDS011;1924;48.078;11.516;2023-04-15T11:24:35;26.60;;;0.73;;
3817;SDS011;1924;48.078;11.516;2023-04-15T11:27:02;26.60;;;0.70;;
3817;SDS011;1924;48.078;11.516;2023-04-15T11:32:04;26.60;;;0.70;;
3817;SDS011;1924;48.078;11.516;2023-04-15T11:34:32;26.40;;;0.70;;
3817;SDS011;1924;48.078;11.516;2023-04-15T11:44:38;26.50;;;0.70;;
3817;SDS011;1924;48.078;11.516;2023-04-15T11:47:21;26.60;;;0.70;;
3817;SDS011;1924;48.078;11.516;2023-04-15T11:49:48;26.40;;;0.70;;
3817;SDS011;1924;48.078;11.516;2023-04-15T11:52:15;26.50;;;0.70;;
3817;SDS011;1924;48.078;11.516;2023-04-15T11:54:42;26.30;;;0.80;;
3817;SDS011;1924;48.078;11.516;2023-04-15T11:57:09;26.47;;;0.77;;
3817;SDS011;1924;48.078;11.516;2023-04-15T11:59:41;26.40;;;0.80;;
3817;SDS011;1924;48.078;11.516;2023-04-15T12:02:10;26.40;;;0.70;;
3817;SDS011;1924;48.078;11.516;2023-04-15T12:04:38;26.40;;;0.70;;
3817;SDS011;1924;48.078;11.516;2023-04-15T12:07:05;26.30;;;0.70;;
3817;SDS011;1924;48.078;11.516;2023-04-15T12:09:36;26.33;;;0.80;;
3817;SDS011;1924;48.078;11.516;2023-04-15T12:14:39;26.20;;;0.70;;
3817;SDS011;1924;48.078;11.516;2023-04-15T12:19:35;26.30;;;0.70;;
3817;SDS011;1924;48.078;11.516;2023-04-15T12:22:04;26.30;;;0.80;;
3817;SDS011;1924;48.078;11.516;2023-04-15T12:24:31;26.20;;;0.80;;
3817;SDS011;1924;48.078;11.516;2023-04-15T12:27:00;26.17;;;0.70;;
3817;SDS011;1924;48.078;11.516;2023-04-15T12:29:29;26.30;;;0.70;;
3817;SDS011;1924;48.078;11.516;2023-04-15T12:31:57;26.20;;;0.70;;
3817;SDS011;1924;48.078;11.516;2023-04-15T12:34:25;26.10;;;0.70;;
3817;SDS011;1924;48.078;11.516;2023-04-15T12:36:54;26.10;;;0.70;;
3817;SDS011;1924;48.078;11.516;2023-04-15T12:39:22;26.10;;;0.70;;
3817;SDS011;1924;48.078;11.516;2023-04-15T12:41:50;26.27;;;0.70;;
3817;SDS011;1924;48.078;11.516;2023-04-15T12:44:16;26.10;;;0.70;;
3817;SDS011;1924;48.078;11.516;2023-04-15T12:49:10;26.03;;;0.70;;
3817;SDS011;1924;48.078;11.516;2023-04-15T12:51:38;26.10;;;0.70;;
3817;SDS011;1924;48.078;11.516;2023-04-15T12:54:06;26.00;;;0.70;;
3817;SDS011;1924;48.078;11.516;2023-04-15T12:56:33;26.00;;;0.70;;
3817;SDS011;1924;48.078;11.516;2023-04-15T12:59:01;26.30;;;0.70;;
3817;SDS011;1924;48.078;11.516;2023-04-15T13:01:28;26.20;;;0.70;;
3817;SDS011;1924;48.078;11.516;2023-04-15T13:03:55;26.20;;;0.70;;
3817;SDS011;1924;48.078;11.516;2023-04-15T13:06:22;26.20;;;0.70;;
3817;SDS011;1924;48.078;11.516;2023-04-15T13:08:49;26.20;;;0.70;;
3817;SDS011;1924;48.078;11.516;2023-04-15T13:16:30;26.10;;;0.70;;
3817;SDS011;1924;48.078;11.516;2023-04-15T13:18:57;26.20;;;0.70;;
3817;SDS011;1924;48.078;11.516;2023-04-15T13:21:24;26.30;;;0.70;;
3817;SDS011;1924;48.078;11.516;2023-04-15T13:26:19;26.30;;;0.70;;
3817;SDS011;1924;48.078;11.516;2023-04-15T13:28:49;26.37;;;0.70;;
3817;SDS011;1924;48.078;11.516;2023-04-15T13:31:19;26.30;;;0.70;;
3817;SDS011;1924;48.078;11.516;2023-04-15T13:33:51;26.20;;;0.80;;
3817;SDS011;1924;48.078;11.516;2023-04-15T13:36:18;26.10;;;0.70;;
3817;SDS011;1924;48.078;11.516;2023-04-15T13:38:45;26.30;;;0.70;;
3817;SDS011;1924;48.078;11.516;2023-04-15T13:43:37;26.20;;;0.70;;
3817;SDS011;1924;48.078;11.516;2023-04-15T13:48:41;26.30;;;0.70;;
3817;SDS011;1924;48.078;11.516;2023-04-15T13:51:11;26.20;;;0.70;;
3817;SDS011;1924;48.078;11.516;2023-04-15T13:53:39;26.20;;;0.70;;
3817;SDS011;1924;48.078;11.516;2023-04-15T13:56:06;26.40;;;0.70;;
3817;SDS011;1924;48.078;11.516;2023-04-15T13:58:34;26.10;;;0.70;;
3817;SDS011;1924;48.078;11.516;2023-04-15T14:01:01;26.10;;;0.73;;
3817;SDS011;1924;48.078;11.516;2023-04-15T14:05:57;26.20;;;0.70;;
3817;SDS011;1924;48.078;11.516;2023-04-15T14:16:07;26.20;;;0.70;;
3817;SDS011;1924;48.078;11.516;2023-04-15T14:23:33;26.20;;;0.70;;
3817;SDS011;1924;48.078;11.516;2023-04-15T14:26:00;26.00;;;0.70;;
3817;SDS011;1924;48.078;11.516;2023-04-15T14:28:27;26.10;;;0.70;;
3817;SDS011;1924;48.078;11.516;2023-04-15T14:30:54;26.17;;;0.70;;
3817;SDS011;1924;48.078;11.516;2023-04-15T14:33:22;26.10;;;0.70;;
3817;SDS011;1924;48.078;11.516;2023-04-15T14:35:51;26.00;;;0.70;;
3817;SDS011;1924;48.078;11.516;2023-04-15T14:43:19;26.20;;;0.70;;
3817;SDS011;1924;48.078;11.516;2023-04-15T14:45:46;26.20;;;0.70;;
3817;SDS011;1924;48.078;11.516;2023-04-15T14:50:50;26.10;;;0.70;;
3817;SDS011;1924;48.078;11.516;2023-04-15T14:53:17;25.97;;;0.77;;
3817;SDS011;1924;48.078;11.516;2023-04-15T14:55:43;25.97;;;0.70;;
3817;SDS011;1924;48.078;11.516;2023-04-15T14:58:18;26.10;;;0.70;;
3817;SDS011;1924;48.078;11.516;2023-04-15T15:00:45;26.17;;;0.70;;
3817;SDS011;1924;48.078;11.516;2023-04-15T15:03:14;26.10;;;0.70;;
3817;SDS011;1924;48.078;11.516;2023-04-15T15:05:41;26.10;;;0.70;;
3817;SDS011;1924;48.078;11.516;2023-04-15T15:10:38;26.10;;;0.70;;
3817;SDS011;1924;48.078;11.516;2023-04-15T15:13:06;26.10;;;0.70;;
3817;SDS011;1924;48.078;11.516;2023-04-15T15:33:23;26.20;;;0.70;;
3817;SDS011;1924;48.078;11.516;2023-04-15T16:10:03;25.80;;;0.77;;
3817;SDS011;1924;48.078;11.516;2023-04-15T16:12:30;25.90;;;0.80;;
3817;SDS011;1924;48.078;11.516;2023-04-15T16:14:57;25.80;;;0.70;;
3817;SDS011;1924;48.078;11.516;2023-04-15T16:22:27;26.00;;;0.73;;
3817;SDS011;1924;48.078;11.516;2023-04-15T16:31:11;25.90;;;0.70;;
3817;SDS011;1924;48.078;11.516;2023-04-15T16:33:38;25.90;;;0.70;;
3817;SDS011;1924;48.078;11.516;2023-04-15T16:36:04;25.80;;;0.70;;
3817;SDS011;1924;48.078;11.516;2023-04-15T16:38:31;25.80;;;0.70;;
3817;SDS011;1924;48.078;11.516;2023-04-15T16:40:58;25.80;;;0.70;;
3817;SDS011;1924;48.078;11.516;2023-04-15T16:43:26;25.80;;;0.70;;
3817;SDS011;1924;48.078;11.516;2023-04-15T16:45:53;25.60;;;0.70;;
3817;SDS011;1924;48.078;11.516;2023-04-15T16:48:21;25.70;;;0.70;;
3817;SDS011;1924;48.078;11.516;2023-04-15T16:50:48;25.80;;;0.70;;
3817;SDS011;1924;48.078;11.516;2023-04-15T16:53:15;25.70;;;0.70;;
3817;SDS011;1924;48.078;11.516;2023-04-15T16:55:41;25.80;;;0.70;;
3817;SDS011;1924;48.078;11.516;2023-04-15T16:58:08;25.80;;;0.70;;
3817;SDS011;1924;48.078;11.516;2023-04-15T17:00:35;25.67;;;0.70;;
3817;SDS011;1924;48.078;11.516;2023-04-15T17:03:02;25.60;;;0.73;;
3817;SDS011;1924;48.078;11.516;2023-04-15T17:05:33;25.80;;;0.70;;
3817;SDS011;1924;48.078;11.516;2023-04-15T17:08:00;25.80;;;0.70;;
3817;SDS011;1924;48.078;11.516;2023-04-15T17:10:26;25.77;;;0.70;;
3817;SDS011;1924;48.078;11.516;2023-04-15T17:15:29;25.80;;;0.80;;
3817;SDS011;1924;48.078;11.516;2023-04-15T17:17:56;25.80;;;0.70;;
3817;SDS011;1924;48.078;11.516;2023-04-15T17:20:23;25.90;;;0.80;;
3817;SDS011;1924;48.078;11.516;2023-04-15T17:22:51;25.90;;;0.77;;
3817;SDS011;1924;48.078;11.516;2023-04-15T17:25:19;25.80;;;0.70;;
3817;SDS011;1924;48.078;11.516;2023-04-15T17:27:45;25.80;;;0.80;;
3817;SDS011;1924;48.078;11.516;2023-04-15T17:30:12;25.90;;;0.80;;
3817;SDS011;1924;48.078;11.516;2023-04-15T17:32:39;25.70;;;0.70;;
3817;SDS011;1924;48.078;11.516;2023-04-15T17:35:06;25.70;;;0.70;;
3817;SDS011;1924;48.078;11.516;2023-04-15T17:40:07;25.70;;;0.70;;
3817;SDS011;1924;48.078;11.516;2023-04-15T17:42:34;25.70;;;0.73;;
3817;SDS011;1924;48.078;11.516;2023-04-15T17:45:01;25.80;;;0.77;;
3817;SDS011;1924;48.078;11.516;2023-04-15T17:47:28;25.70;;;0.73;;
3817;SDS011;1924;48.078;11.516;2023-04-15T17:49:55;25.60;;;0.77;;
3817;SDS011;1924;48.078;11.516;2023-04-15T17:52:21;25.80;;;0.70;;
3817;SDS011;1924;48.078;11.516;2023-04-15T17:54:48;25.70;;;0.70;;
3817;SDS011;1924;48.078;11.516;2023-04-15T17:57:16;25.70;;;0.70;;
3817;SDS011;1924;48.078;11.516;2023-04-15T17:59:43;25.90;;;0.70;;
3817;SDS011;1924;48.078;11.516;2023-04-15T18:02:11;25.70;;;0.70;;
3817;SDS011;1924;48.078;11.516;2023-04-15T18:04:38;25.80;;;0.80;;
3817;SDS011;1924;48.078;11.516;2023-04-15T18:07:05;25.90;;;0.80;;
3817;SDS011;1924;48.078;11.516;2023-04-15T18:09:32;25.90;;;0.70;;
3817;SDS011;1924;48.078;11.516;2023-04-15T18:12:01;25.90;;;0.70;;
3817;SDS011;1924;48.078;11.516;2023-04-15T18:14:29;25.80;;;0.70;;
3817;SDS011;1924;48.078;11.516;2023-04-15T18:16:56;25.70;;;0.80;;
3817;SDS011;1924;48.078;11.516;2023-04-15T18:19:23;26.00;;;0.70;;
3817;SDS011;1924;48.078;11.516;2023-04-15T18:21:49;26.00;;;0.80;;
3817;SDS011;1924;48.078;11.516;2023-04-15T18:24:16;26.00;;;0.70;;
3817;SDS011;1924;48.078;11.516;2023-04-15T18:26:43;25.90;;;0.70;;
3817;SDS011;1924;48.078;11.516;2023-04-15T18:29:10;25.90;;;0.70;;
3817;SDS011;1924;48.078;11.516;2023-04-15T18:31:38;26.10;;;0.80;;
3817;SDS011;1924;48.078;11.516;2023-04-15T18:34:05;26.10;;;0.80;;
3817;SDS011;1924;48.078;11.516;2023-04-15T18:36:32;26.17;;;0.80;;
3817;SDS011;1924;48.078;11.516;2023-04-15T18:38:59;26.10;;;0.80;;
3817;SDS011;1924;48.078;11.516;2023-04-15T18:41:26;26.20;;;0.70;;
3817;SDS011;1924;48.078;11.516;2023-04-15T18:43:53;26.20;;;0.70;;
3817;SDS011;1924;48.078;11.516;2023-04-15T18:46:20;26.30;;;0.70;;
3817;SDS011;1924;48.078;11.516;2023-04-15T18:48:48;26.10;;;0.70;;
3817;SDS011;1924;48.078;11.516;2023-04-15T18:51:15;26.10;;;0.70;;
3817;SDS011;1924;48.078;11.516;2023-04-15T18:53:42;26.30;;;0.70;;
3817;SDS011;1924;48.078;11.516;2023-04-15T18:56:09;26.20;;;0.80;;
3817;SDS011;1924;48.078;11.516;2023-04-15T18:58:35;26.37;;;0.80;;
3817;SDS011;1924;48.078;11.516;2023-04-15T19:01:06;26.30;;;0.80;;
3817;SDS011;1924;48.078;11.516;2023-04-15T19:03:33;26.23;;;0.73;;
3817;SDS011;1924;48.078;11.516;2023-04-15T19:06:01;26.40;;;0.80;;
3817;SDS011;1924;48.078;11.516;2023-04-15T19:08:28;26.40;;;0.80;;
3817;SDS011;1924;48.078;11.516;2023-04-15T19:10:55;26.30;;;0.70;;
3817;SDS011;1924;48.078;11.516;2023-04-15T19:13:22;26.40;;;0.80;;
3817;SDS011;1924;48.078;11.516;2023-04-15T19:15:50;26.20;;;0.70;;
3817;SDS011;1924;48.078;11.516;2023-04-15T19:18:17;26.40;;;0.80;;
3817;SDS011;1924;48.078;11.516;2023-04-15T19:20:44;26.27;;;0.77;;
3817;SDS011;1924;48.078;11.516;2023-04-15T19:23:17;26.30;;;0.80;;
3817;SDS011;1924;48.078;11.516;2023-04-15T19:25:44;26.30;;;0.80;;
3817;SDS011;1924;48.078;11.516;2023-04-15T19:28:11;26.40;;;0.80;;
3817;SDS011;1924;48.078;11.516;2023-04-15T19:30:37;26.30;;;0.77;;
3817;SDS011;1924;48.078;11.516;2023-04-15T19:33:04;26.30;;;0.80;;
3817;SDS011;1924;48.078;11.516;2023-04-15T19:35:31;26.30;;;0.80;;
3817;SDS011;1924;48.078;11.516;2023-04-15T19:37:58;26.30;;;0.80;;
3817;SDS011;1924;48.078;11.516;2023-04-15T19:40:26;26.40;;;0.80;;
3817;SDS011;1924;48.078;11.516;2023-04-15T19:42:53;26.37;;;0.80;;
3817;SDS011;1924;48.078;11.516;2023-04-15T19:45:20;26.40;;;0.80;;
3817;SDS011;1924;48.078;11.516;2023-04-15T19:47:47;26.47;;;0.77;;
3817;SDS011;1924;48.078;11.516;2023-04-15T19:50:13;26.20;;;0.80;;
3817;SDS011;1924;48.078;11.516;2023-04-15T19:52:40;26.30;;;0.70;;
3817;SDS011;1924;48.078;11.516;2023-04-15T19:55:07;26.27;;;0.70;;
3817;SDS011;1924;48.078;11.516;2023-04-15T19:57:35;26.30;;;0.80;;
3817;SDS011;1924;48.078;11.516;2023-04-15T20:00:02;26.40;;;0.70;;
3817;SDS011;1924;48.078;11.516;2023-04-15T20:02:31;26.40;;;0.80;;
3817;SDS011;1924;48.078;11.516;2023-04-15T20:04:57;26.30;;;0.80;;
3817;SDS011;1924;48.078;11.516;2023-04-15T20:07:24;26.40;;;0.80;;
3817;SDS011;1924;48.078;11.516;2023-04-15T20:09:51;26.40;;;0.77;;
3817;SDS011;1924;48.078;11.516;2023-04-15T20:12:17;26.40;;;0.80;;
3817;SDS011;1924;48.078;11.516;2023-04-15T20:14:46;26.40;;;0.80;;
3817;SDS011;1924;48.078;11.516;2023-04-15T20:17:13;26.40;;;0.80;;
3817;SDS011;1924;48.078;11.516;2023-04-15T20:19:39;26.40;;;0.80;;
3817;SDS011;1924;48.078;11.516;2023-04-15T20:22:06;26.40;;;0.80;;
3817;SDS011;1924;48.078;11.516;2023-04-15T20:24:33;26.30;;;0.77;;
3817;SDS011;1924;48.078;11.516;2023-04-15T20:27:02;26.40;;;0.80;;
3817;SDS011;1924;48.078;11.516;2023-04-15T20:29:29;26.27;;;0.73;;
3817;SDS011;1924;48.078;11.516;2023-04-15T20:31:57;26.33;;;0.80;;
3817;SDS011;1924;48.078;11.516;2023-04-15T20:34:24;26.20;;;0.80;;
3817;SDS011;1924;48.078;11.516;2023-04-15T20:36:51;26.30;;;0.80;;
3817;SDS011;1924;48.078;11.516;2023-04-15T20:39:18;26.40;;;0.80;;
3817;SDS011;1924;48.078;11.516;2023-04-15T20:41:44;26.40;;;0.80;;
3817;SDS011;1924;48.078;11.516;2023-04-15T20:44:11;26.20;;;0.80;;
3817;SDS011;1924;48.078;11.516;2023-04-15T20:46:38;26.30;;;0.80;;
3817;SDS011;1924;48.078;11.516;2023-04-15T20:49:06;26.37;;;0.73;;
3817;SDS011;1924;48.078;11.516;2023-04-15T20:51:33;26.07;;;0.73;;
3817;SDS011;1924;48.078;11.516;2023-04-15T20:54:01;26.20;;;0.80;;
3817;SDS011;1924;48.078;11.516;2023-04-15T20:56:28;26.30;;;0.80;;
3817;SDS011;1924;48.078;11.516;2023-04-15T20:58:55;26.20;;;0.77;;
3817;SDS011;1924;48.078;11.516;2023-04-15T21:01:22;26.20;;;0.80;;
3817;SDS011;1924;48.078;11.516;2023-04-15T21:03:48;26.20;;;0.80;;
3817;SDS011;1924;48.078;11.516;2023-04-15T21:06:16;26.30;;;0.70;;
3817;SDS011;1924;48.078;11.516;2023-04-15T21:08:43;26.30;;;0.80;;
3817;SDS011;1924;48.078;11.516;2023-04-15T21:11:10;26.30;;;0.80;;
3817;SDS011;1924;48.078;11.516;2023-04-15T21:13:36;26.20;;;0.70;;
3817;SDS011;1924;48.078;11.516;2023-04-15T21:16:03;26.30;;;0.70;;
3817;SDS011;1924;48.078;11.516;2023-04-15T21:18:30;26.40;;;0.80;;
3817;SDS011;1924;48.078;11.516;2023-04-15T21:20:57;26.40;;;0.73;;
3817;SDS011;1924;48.078;11.516;2023-04-15T21:23:26;26.40;;;0.80;;
3817;SDS011;1924;48.078;11.516;2023-04-15T21:25:53;26.30;;;0.73;;
3817;SDS011;1924;48.078;11.516;2023-04-15T21:28:20;26.40;;;0.80;;
3817;SDS011;1924;48.078;11.516;2023-04-15T21:30:47;26.30;;;0.70;;